createdAt,value
2022-08-03T00:00:39.421Z,73.57
2022-08-03T00:03:35.194Z,73.90
2022-08-03T00:06:17.440Z,73.96
2022-08-03T00:09:06.428Z,74.36
2022-08-03T00:11:48.421Z,73.92
2022-08-03T00:14:40.166Z,74.10
2022-08-03T00:17:22.348Z,74.21
2022-08-03T00:20:11.213Z,74.62
2022-08-03T00:22:53.792Z,74.52
2022-08-03T00:25:42.438Z,73.61
2022-08-03T00:28:31.711Z,74.44
2022-08-03T00:31:14.439Z,74.71
2022-08-03T00:33:57.903Z,75.19
2022-08-03T00:36:48.453Z,74.25
2022-08-03T00:39:30.227Z,74.49
2022-08-03T00:42:20.175Z,74.29
2022-08-03T00:45:02.608Z,74.21
2022-08-03T00:47:51.413Z,74.09
2022-08-03T00:50:43.592Z,73.60
2022-08-03T00:53:26.420Z,73.84
2022-08-03T00:56:08.785Z,73.30
2022-08-03T00:59:00.425Z,74.30
2022-08-03T01:01:42.283Z,74.55
2022-08-03T01:04:31.168Z,73.56
2022-08-03T01:07:30.594Z,73.31
2022-08-03T01:10:39.227Z,72.88
2022-08-03T01:13:59.934Z,72.64
2022-08-03T01:17:07.144Z,72.08
2022-08-03T01:20:14.767Z,73.17
2022-08-03T01:23:32.436Z,74.01
2022-08-03T01:26:32.781Z,73.24
2022-08-03T01:29:54.165Z,73.23
2022-08-03T01:33:02.301Z,73.26
2022-08-03T01:36:15.397Z,72.29
2022-08-03T01:39:01.969Z,71.68
2022-08-03T01:41:59.189Z,72.13
2022-08-03T01:44:49.932Z,72.40
2022-08-03T01:47:39.181Z,70.79
2022-08-03T01:50:23.448Z,69.91
2022-08-03T01:53:15.409Z,69.92
2022-08-03T01:56:09.427Z,70.04
2022-08-03T01:58:54.184Z,69.58
2022-08-03T02:02:28.592Z,68.41
2022-08-03T02:04:48.556Z,69.44
2022-08-03T02:07:41.227Z,67.15
2022-08-03T02:10:35.467Z,67.56
2022-08-03T02:13:26.187Z,68.74
2022-08-03T02:16:15.472Z,67.75
2022-08-03T02:18:58.697Z,66.17
2022-08-03T02:21:56.785Z,66.63
2022-08-03T02:24:44.449Z,65.55
2022-08-03T02:27:49.436Z,65.21
2022-08-03T02:30:43.725Z,63.49
2022-08-03T02:33:32.188Z,62.93
2022-08-03T02:36:22.692Z,61.55
2022-08-03T02:39:08.404Z,62.29
2022-08-03T02:41:56.482Z,61.11
2022-08-03T02:44:49.179Z,61.57
2022-08-03T02:47:53.402Z,59.94
2022-08-03T02:50:38.175Z,61.12
2022-08-03T02:53:22.555Z,62.44
2022-08-03T02:56:13.181Z,61.76
2022-08-03T02:59:04.159Z,59.61
2022-08-03T03:01:54.426Z,59.36
2022-08-03T03:05:50.917Z,60.12
2022-08-03T03:07:51.990Z,58.95
2022-08-03T03:10:42.361Z,58.49
2022-08-03T03:13:27.082Z,59.67
2022-08-03T03:16:16.159Z,58.36
2022-08-03T03:18:59.452Z,58.48
2022-08-03T03:21:48.414Z,57.97
2022-08-03T03:24:32.689Z,58.05
2022-08-03T03:27:23.429Z,58.32
2022-08-03T03:30:20.010Z,57.77
2022-08-03T03:33:14.404Z,58.39
2022-08-03T03:36:03.430Z,56.93
2022-08-03T03:38:45.432Z,57.08
2022-08-03T03:41:34.412Z,57.44
2022-08-03T03:44:16.676Z,56.29
2022-08-03T03:47:08.223Z,55.26
2022-08-03T03:49:50.460Z,55.27
2022-08-03T03:52:41.155Z,54.34
2022-08-03T03:55:26.619Z,56.69
2022-08-03T03:58:15.397Z,56.82
2022-08-03T04:00:57.409Z,57.29
2022-08-03T04:03:46.162Z,56.62
2022-08-03T04:06:46.838Z,57.65
2022-08-03T04:09:53.391Z,58.33
2022-08-03T04:12:38.454Z,60.65
2022-08-03T04:15:41.176Z,62.20
2022-08-03T04:18:25.621Z,62.30
2022-08-03T04:21:18.201Z,62.10
2022-08-03T04:24:03.485Z,61.09
2022-08-03T04:26:53.416Z,61.70
2022-08-03T04:29:39.996Z,62.61
2022-08-03T04:32:46.035Z,61.28
2022-08-03T04:36:01.033Z,61.40
2022-08-03T04:38:44.421Z,63.54
2022-08-03T04:42:04.384Z,65.06
2022-08-03T04:44:39.490Z,67.77
2022-08-03T04:47:28.170Z,63.88
2022-08-03T04:50:15.040Z,66.12
2022-08-03T04:53:19.510Z,65.34
2022-08-03T04:56:08.172Z,66.65
2022-08-03T04:58:50.631Z,69.66
2022-08-03T05:01:39.263Z,70.31
2022-08-03T05:04:21.874Z,71.00
2022-08-03T05:07:11.612Z,70.78
2022-08-03T05:10:03.204Z,71.26
2022-08-03T05:12:46.425Z,71.61
2022-08-03T05:15:34.438Z,72.49
2022-08-03T05:18:24.419Z,70.84
2022-08-03T05:21:13.175Z,71.50
2022-08-03T05:23:55.409Z,72.72
2022-08-03T05:26:44.404Z,70.31
2022-08-03T05:29:26.349Z,71.02
2022-08-03T05:32:15.520Z,73.52
2022-08-03T05:35:57.920Z,61.46
2022-08-03T05:38:20.879Z,62.83
2022-08-03T05:41:36.524Z,63.53
2022-08-03T05:44:26.651Z,66.58
2022-08-03T05:47:08.405Z,66.61
2022-08-03T05:49:56.574Z,65.68
2022-08-03T05:52:38.158Z,66.80
2022-08-03T05:55:27.404Z,68.08
2022-08-03T05:58:10.454Z,66.37
2022-08-03T06:01:00.158Z,61.70
2022-08-03T06:03:42.738Z,64.80
2022-08-03T06:06:32.372Z,61.15
2022-08-03T06:09:14.429Z,58.81
2022-08-03T06:12:03.151Z,58.41
2022-08-03T06:14:45.686Z,61.35
2022-08-03T06:17:37.750Z,58.09
2022-08-03T06:20:19.942Z,56.68
2022-08-03T06:23:08.218Z,54.33
2022-08-03T06:25:58.498Z,55.89
2022-08-03T06:28:52.637Z,55.27
2022-08-03T06:31:36.656Z,54.13
2022-08-03T06:34:34.056Z,57.48
2022-08-03T06:37:17.509Z,55.58
2022-08-03T06:40:06.407Z,58.26
2022-08-03T06:42:49.909Z,55.42
2022-08-03T06:45:39.279Z,57.24
2022-08-03T06:48:21.574Z,58.08
2022-08-03T06:51:10.468Z,56.67
2022-08-03T06:53:52.385Z,59.21
2022-08-03T06:56:41.694Z,58.69
2022-08-03T07:00:09.187Z,60.91
2022-08-03T07:02:32.457Z,59.49
2022-08-03T07:05:16.771Z,59.81
2022-08-03T07:08:07.152Z,60.84
2022-08-03T07:10:49.643Z,61.15
2022-08-03T07:13:38.149Z,62.42
2022-08-03T07:16:21.147Z,62.01
2022-08-03T07:19:10.424Z,62.47
2022-08-03T07:21:53.663Z,61.82
2022-08-03T07:24:41.210Z,60.28
2022-08-03T07:27:24.896Z,56.51
2022-08-03T07:30:17.407Z,54.87
2022-08-03T07:33:06.132Z,59.78
2022-08-03T07:36:03.422Z,58.02
2022-08-03T07:38:45.161Z,55.12
2022-08-03T07:41:34.428Z,55.17
2022-08-03T07:44:16.719Z,56.40
2022-08-03T07:47:05.150Z,54.03
2022-08-03T07:49:52.454Z,54.78
2022-08-03T07:52:57.173Z,53.58
2022-08-03T07:55:39.864Z,56.44
2022-08-03T07:58:34.168Z,53.78
2022-08-03T08:01:27.297Z,55.20
2022-08-03T08:04:16.143Z,56.31
2022-08-03T08:07:05.187Z,56.12
2022-08-03T08:09:47.658Z,57.46
2022-08-03T08:12:36.196Z,56.94
2022-08-03T08:15:25.919Z,55.21
2022-08-03T08:18:10.146Z,54.44
2022-08-03T08:21:11.598Z,54.72
2022-08-03T08:24:19.716Z,52.96
2022-08-03T08:27:09.161Z,51.29
2022-08-03T08:29:54.604Z,52.54
2022-08-03T08:32:38.400Z,51.89
2022-08-03T08:35:34.186Z,53.38
2022-08-03T08:38:16.259Z,52.56
2022-08-03T08:41:05.425Z,53.24
2022-08-03T08:43:47.601Z,54.20
2022-08-03T08:46:42.126Z,53.87
2022-08-03T08:49:29.153Z,52.13
2022-08-03T08:52:25.142Z,52.29
2022-08-03T08:55:24.439Z,49.39
2022-08-03T08:58:20.811Z,52.09
2022-08-03T09:01:10.243Z,49.49
2022-08-03T09:03:54.301Z,52.33
2022-08-03T09:06:58.560Z,50.79
2022-08-03T09:10:10.671Z,53.20
2022-08-03T09:12:55.175Z,51.86
2022-08-03T09:16:01.206Z,54.88
2022-08-03T09:18:43.394Z,54.01
2022-08-03T09:21:35.021Z,57.15
2022-08-03T09:24:37.330Z,56.74
2022-08-03T09:27:27.666Z,56.13
2022-08-03T09:30:33.133Z,57.21
2022-08-03T09:33:26.460Z,58.23
2022-08-03T09:36:52.192Z,58.88
2022-08-03T09:39:47.448Z,59.52
2022-08-03T09:42:29.728Z,58.33
2022-08-03T09:45:12.406Z,58.24
2022-08-03T09:48:00.973Z,60.02
2022-08-03T09:51:12.482Z,59.22
2022-08-03T09:54:00.454Z,58.97
2022-08-03T09:57:00.137Z,54.80
2022-08-03T09:59:42.178Z,58.49
2022-08-03T10:02:41.418Z,56.56
2022-08-03T10:05:45.363Z,57.97
2022-08-03T10:08:28.383Z,56.60
2022-08-03T10:11:18.719Z,56.07
2022-08-03T10:14:01.515Z,57.92
2022-08-03T10:16:50.133Z,57.69
2022-08-03T10:19:39.151Z,56.97
2022-08-03T10:22:25.014Z,58.39
2022-08-03T10:25:33.249Z,57.59
2022-08-03T10:28:19.708Z,58.66
2022-08-03T10:31:10.559Z,57.93
2022-08-03T10:33:53.940Z,58.26
2022-08-03T10:36:46.452Z,57.86
2022-08-03T10:39:31.760Z,58.02
2022-08-03T10:42:21.162Z,58.98
2022-08-03T10:45:27.844Z,57.60
2022-08-03T10:48:10.115Z,58.83
2022-08-03T10:50:53.201Z,57.88
2022-08-03T10:53:55.842Z,58.20
2022-08-03T10:57:06.314Z,57.26
2022-08-03T11:00:07.595Z,56.98
2022-08-03T11:03:17.415Z,55.36
2022-08-03T11:06:06.317Z,56.40
2022-08-03T11:08:56.464Z,56.84
2022-08-03T11:11:39.204Z,56.38
2022-08-03T11:14:30.397Z,57.83
2022-08-03T11:17:16.987Z,56.76
2022-08-03T11:20:06.170Z,54.81
2022-08-03T11:23:00.409Z,52.38
2022-08-03T11:26:40.424Z,51.24
2022-08-03T11:29:43.408Z,51.05
2022-08-03T11:32:49.044Z,50.99
2022-08-03T11:35:53.202Z,52.33
2022-08-03T11:38:48.148Z,52.32
2022-08-03T11:41:44.835Z,51.28
2022-08-03T11:44:56.396Z,52.23
2022-08-03T11:47:50.145Z,52.40
2022-08-03T11:50:40.162Z,52.39
2022-08-03T11:53:22.888Z,52.96
2022-08-03T11:56:14.400Z,53.50
2022-08-03T11:59:19.964Z,54.30
2022-08-03T12:02:29.201Z,54.47
2022-08-03T12:05:18.385Z,54.35
2022-08-03T12:08:03.714Z,55.17
2022-08-03T12:11:00.077Z,54.90
2022-08-03T12:14:30.063Z,55.92
2022-08-03T12:17:02.144Z,56.24
2022-08-03T12:19:50.838Z,55.47
2022-08-03T12:22:43.409Z,57.49
2022-08-03T12:25:39.178Z,57.58
2022-08-03T12:28:37.680Z,58.55
2022-08-03T12:31:20.408Z,57.24
2022-08-03T12:34:16.422Z,57.63
2022-08-03T12:37:29.883Z,58.21
2022-08-03T12:40:17.827Z,57.49
2022-08-03T12:43:11.158Z,58.11
2022-08-03T12:45:53.478Z,57.64
2022-08-03T12:48:42.406Z,56.91
2022-08-03T12:51:24.602Z,57.26
2022-08-03T12:54:14.164Z,58.30
2022-08-03T12:57:15.953Z,58.82
2022-08-03T13:00:29.174Z,59.40
2022-08-03T13:03:39.664Z,58.47
2022-08-03T13:06:26.427Z,59.21
2022-08-03T13:09:22.393Z,59.73
2022-08-03T13:12:15.178Z,60.42
2022-08-03T13:15:00.390Z,60.04
2022-08-03T13:17:49.133Z,60.33
2022-08-03T13:20:39.428Z,60.50
2022-08-03T13:23:28.450Z,60.80
2022-08-03T13:26:17.159Z,61.02
2022-08-03T13:29:06.409Z,60.18
2022-08-03T13:31:50.471Z,59.95
2022-08-03T13:34:40.427Z,59.64
2022-08-03T13:37:36.238Z,60.95
2022-08-03T13:40:32.635Z,60.92
2022-08-03T13:43:17.344Z,60.76
2022-08-03T13:46:06.428Z,60.34
2022-08-03T13:48:48.600Z,59.92
2022-08-03T13:51:37.389Z,62.19
2022-08-03T13:54:20.593Z,58.91
2022-08-03T13:58:03.456Z,58.96
2022-08-03T14:00:26.378Z,55.96
2022-08-03T14:03:14.808Z,56.35
2022-08-03T14:06:04.204Z,55.62
2022-08-03T14:08:46.841Z,55.04
2022-08-03T14:12:07.602Z,54.63
2022-08-03T14:14:44.145Z,55.43
2022-08-03T14:17:26.638Z,54.69
2022-08-03T14:20:37.959Z,55.42
2022-08-03T14:23:36.732Z,55.28
2022-08-03T14:26:19.412Z,56.10
2022-08-03T14:29:01.264Z,54.81
2022-08-03T14:32:10.833Z,55.11
2022-08-03T14:34:59.703Z,57.99
2022-08-03T14:37:48.506Z,54.95
2022-08-03T14:40:46.804Z,57.45
2022-08-03T14:43:39.110Z,57.29
2022-08-03T14:46:21.695Z,57.14
2022-08-03T14:50:31.257Z,56.94
2022-08-03T14:52:13.549Z,55.30
2022-08-03T14:55:02.403Z,54.86
2022-08-03T14:57:44.594Z,54.73
2022-08-03T15:00:33.162Z,55.99
2022-08-03T15:03:16.909Z,56.72
2022-08-03T15:06:06.164Z,56.20
2022-08-03T15:09:06.277Z,56.47
2022-08-03T15:11:59.173Z,57.77
2022-08-03T15:14:41.515Z,56.94
2022-08-03T15:17:30.184Z,57.85
2022-08-03T15:20:25.476Z,59.04
2022-08-03T15:23:23.139Z,59.84
2022-08-03T15:26:31.915Z,59.43
2022-08-03T15:30:06.739Z,59.85
2022-08-03T15:32:30.175Z,59.35
2022-08-03T15:35:12.341Z,59.87
2022-08-03T15:38:02.493Z,60.77
2022-08-03T15:41:02.257Z,61.57
2022-08-03T15:43:51.154Z,63.07
2022-08-03T15:46:33.631Z,62.52
2022-08-03T15:49:23.414Z,60.38
2022-08-03T15:52:05.567Z,60.65
2022-08-03T15:54:54.431Z,62.19
2022-08-03T15:59:03.833Z,59.28
2022-08-03T16:00:45.883Z,59.45
2022-08-03T16:03:29.226Z,59.78
2022-08-03T16:06:18.127Z,61.65
2022-08-03T16:09:24.153Z,61.18
2022-08-03T16:12:22.402Z,60.06
2022-08-03T16:15:04.785Z,60.67
2022-08-03T16:17:53.406Z,61.59
2022-08-03T16:20:35.844Z,61.74
2022-08-03T16:23:29.483Z,61.66
2022-08-03T16:26:16.615Z,59.63
2022-08-03T16:29:05.420Z,59.59
2022-08-03T16:32:14.129Z,60.10
2022-08-03T16:35:03.362Z,59.97
2022-08-03T16:37:54.566Z,58.89
2022-08-03T16:40:53.024Z,58.27
2022-08-03T16:43:43.450Z,59.44
2022-08-03T16:46:25.697Z,58.86
2022-08-03T16:49:53.662Z,59.12
2022-08-03T16:52:23.424Z,58.27
2022-08-03T16:55:07.654Z,59.65
2022-08-03T16:57:59.869Z,61.53
2022-08-03T17:00:51.136Z,59.57
2022-08-03T17:03:42.765Z,60.58
2022-08-03T17:06:48.128Z,60.37
2022-08-03T17:09:38.852Z,60.71
2022-08-03T17:12:28.371Z,60.24
2022-08-03T17:15:19.158Z,62.33
2022-08-03T17:18:22.077Z,62.72
2022-08-03T17:21:13.176Z,61.67
2022-08-03T17:24:05.359Z,61.57
2022-08-03T17:26:57.214Z,60.99
2022-08-03T17:29:45.148Z,60.69
2022-08-03T17:32:34.196Z,62.70
2022-08-03T17:35:17.494Z,60.79
2022-08-03T17:38:13.745Z,62.57
2022-08-03T17:44:15.668Z,62.49
2022-08-03T17:47:06.544Z,62.28
2022-08-03T17:49:48.220Z,62.42
2022-08-03T17:52:57.649Z,63.70
2022-08-03T17:55:55.169Z,63.47
2022-08-03T17:59:08.324Z,62.45
2022-08-03T18:02:30.760Z,62.46
2022-08-03T18:06:10.515Z,63.04
2022-08-03T18:09:05.349Z,64.02
2022-08-03T18:12:08.121Z,63.79
2022-08-03T18:15:01.132Z,64.03
2022-08-03T18:21:17.147Z,65.15
2022-08-03T18:24:00.433Z,65.04
2022-08-03T18:26:48.916Z,64.61
2022-08-03T18:29:39.399Z,65.43
2022-08-03T18:32:21.472Z,65.12
2022-08-03T18:35:17.398Z,66.17
2022-08-03T18:38:10.355Z,66.93
2022-08-03T18:41:07.088Z,67.73
2022-08-03T18:44:07.070Z,66.87
2022-08-03T18:47:51.770Z,66.88
2022-08-03T18:50:50.216Z,66.59
2022-08-03T18:54:03.470Z,67.72
2022-08-03T18:56:54.780Z,66.45
2022-08-03T19:00:42.426Z,67.01
2022-08-03T19:03:43.524Z,66.16
2022-08-03T19:06:29.995Z,66.40
2022-08-03T19:09:28.739Z,67.20
2022-08-03T19:12:28.168Z,67.47
2022-08-03T19:15:36.999Z,66.23
2022-08-03T19:18:29.395Z,66.78
2022-08-03T19:21:15.536Z,67.71
2022-08-03T19:24:09.693Z,66.73
2022-08-03T19:26:55.146Z,67.74
2022-08-03T19:29:58.811Z,67.19
2022-08-03T19:32:50.424Z,67.18
2022-08-03T19:35:52.214Z,66.56
2022-08-03T19:38:39.392Z,68.01
2022-08-03T19:41:41.602Z,66.96
2022-08-03T19:44:37.156Z,65.36
2022-08-03T19:47:46.139Z,63.72
2022-08-03T19:53:43.214Z,63.84
2022-08-03T19:56:35.168Z,62.59
2022-08-03T19:59:18.825Z,63.60
2022-08-03T20:02:07.389Z,63.36
2022-08-03T20:05:00.061Z,64.25
2022-08-03T20:07:49.126Z,63.66
2022-08-03T20:10:31.737Z,63.34
2022-08-03T20:13:23.158Z,65.20
2022-08-03T20:16:11.424Z,64.58
2022-08-03T20:19:00.477Z,64.81
2022-08-03T20:21:44.304Z,65.19
2022-08-03T20:24:40.144Z,65.58
2022-08-03T20:28:06.677Z,66.16
2022-08-03T20:30:38.579Z,65.50
2022-08-03T20:33:46.687Z,66.38
2022-08-03T20:36:31.237Z,66.73
2022-08-03T20:39:20.395Z,67.47
2022-08-03T20:42:21.280Z,66.42
2022-08-03T20:45:14.060Z,67.19
2022-08-03T20:48:22.121Z,67.25
2022-08-03T20:51:19.357Z,67.32
2022-08-03T20:54:07.836Z,66.55
2022-08-03T20:57:15.693Z,68.54
2022-08-03T21:00:00.175Z,68.24
2022-08-03T21:02:48.448Z,67.55
2022-08-03T21:05:51.281Z,67.55
2022-08-03T21:08:39.243Z,67.20
2022-08-03T21:11:41.501Z,65.62
2022-08-03T21:12:54.576Z,61.79
2022-08-03T21:13:04.133Z,63.90
2022-08-03T21:13:13.133Z,64.21
2022-08-03T21:15:00.667Z,65.27
2022-08-03T21:17:50.115Z,65.41
2022-08-03T21:20:42.405Z,65.16
2022-08-03T21:23:45.415Z,64.06
2022-08-03T21:26:40.654Z,64.18
2022-08-03T21:29:24.155Z,65.13
2022-08-03T21:32:08.405Z,66.31
2022-08-03T21:35:01.147Z,65.85
2022-08-03T21:38:09.931Z,67.08
2022-08-03T21:40:52.150Z,66.94
2022-08-03T21:43:40.438Z,65.69
2022-08-03T21:46:26.172Z,68.04
2022-08-03T21:49:51.841Z,67.34
2022-08-03T21:52:21.177Z,67.97
2022-08-03T21:55:18.186Z,67.37
2022-08-03T21:58:07.365Z,68.16
2022-08-03T22:00:56.203Z,68.62
2022-08-03T22:03:52.868Z,67.63
2022-08-03T22:06:42.170Z,68.31
2022-08-03T22:09:24.448Z,68.67
2022-08-03T22:12:14.121Z,68.60
2022-08-03T22:15:00.200Z,68.37
2022-08-03T22:17:55.622Z,68.46
2022-08-03T22:20:40.612Z,67.97
2022-08-03T22:23:33.142Z,68.85
2022-08-03T22:26:34.991Z,69.28
2022-08-03T22:29:17.411Z,68.88
2022-08-03T22:32:06.133Z,68.49
2022-08-03T22:34:50.325Z,68.34
2022-08-03T22:37:44.119Z,68.60
2022-08-03T22:40:35.167Z,68.59
2022-08-03T22:43:31.236Z,68.64
2022-08-03T22:46:23.402Z,68.37
2022-08-03T22:49:06.656Z,68.99
2022-08-03T22:51:56.275Z,69.09
2022-08-03T22:54:47.395Z,69.42
2022-08-03T22:57:29.363Z,69.51
2022-08-03T23:00:26.422Z,69.14
2022-08-03T23:03:16.215Z,69.61
2022-08-03T23:06:05.463Z,69.52
2022-08-03T23:08:55.386Z,69.69
2022-08-03T23:11:38.017Z,69.54
2022-08-03T23:14:32.386Z,69.60
2022-08-03T23:17:15.769Z,69.57
2022-08-03T23:20:13.144Z,70.65
2022-08-03T23:22:56.313Z,70.29
2022-08-03T23:25:45.121Z,70.96
2022-08-03T23:28:28.674Z,70.47
2022-08-03T23:31:17.145Z,70.98
2022-08-03T23:34:19.183Z,70.80
2022-08-03T23:37:13.154Z,70.43
2022-08-03T23:39:56.593Z,71.24
2022-08-03T23:42:53.375Z,70.80
2022-08-03T23:45:47.608Z,70.77
2022-08-03T23:48:30.136Z,71.11
2022-08-03T23:51:27.675Z,71.33
2022-08-03T23:54:28.394Z,71.51
2022-08-03T23:57:22.398Z,71.39
